createdAt,value
2018-03-31T00:01:04.750Z,61.08
2018-03-31T00:03:31.016Z,61.67
2018-03-31T00:05:57.095Z,61.56
2018-03-31T00:08:23.227Z,61.47
2018-03-31T00:10:49.352Z,61.42
2018-03-31T00:13:15.457Z,61.53
2018-03-31T00:15:42.753Z,62.40
2018-03-31T00:18:08.894Z,61.33
2018-03-31T00:20:34.987Z,61.62
2018-03-31T00:23:01.492Z,61.47
2018-03-31T00:25:27.740Z,60.83
2018-03-31T00:27:53.895Z,61.59
2018-03-31T00:30:20.010Z,61.85
2018-03-31T00:32:46.158Z,61.63
2018-03-31T00:35:12.347Z,61.66
2018-03-31T00:37:38.501Z,61.67
2018-03-31T00:40:04.788Z,62.11
2018-03-31T00:42:30.970Z,62.57
2018-03-31T00:44:57.123Z,63.08
2018-03-31T00:47:23.265Z,62.88
2018-03-31T00:49:49.474Z,62.65
2018-03-31T00:52:15.561Z,62.07
2018-03-31T00:54:42.712Z,61.84
2018-03-31T00:57:08.866Z,62.32
2018-03-31T00:59:34.974Z,62.43
2018-03-31T01:02:01.082Z,62.03
2018-03-31T01:04:40.594Z,62.30
2018-03-31T01:07:06.786Z,61.84
2018-03-31T01:09:32.886Z,62.44
2018-03-31T01:11:58.952Z,62.83
2018-03-31T01:14:27.163Z,63.36
2018-03-31T01:16:53.285Z,63.85
2018-03-31T01:19:19.531Z,63.34
2018-03-31T01:21:46.171Z,63.30
2018-03-31T01:24:12.473Z,62.65
2018-03-31T01:26:38.852Z,62.34
2018-03-31T01:29:05.075Z,63.03
2018-03-31T01:31:31.183Z,62.90
2018-03-31T01:33:57.358Z,62.49
2018-03-31T01:36:23.958Z,62.71
2018-03-31T01:38:50.348Z,62.88
2018-03-31T01:41:16.455Z,63.38
2018-03-31T01:43:44.688Z,63.61
2018-03-31T01:46:10.777Z,63.83
2018-03-31T01:48:36.910Z,63.61
2018-03-31T01:51:02.998Z,63.66
2018-03-31T01:53:29.151Z,64.27
2018-03-31T01:55:55.296Z,64.10
2018-03-31T01:58:21.406Z,64.19
2018-03-31T02:00:47.472Z,64.62
2018-03-31T02:03:13.538Z,64.41
2018-03-31T02:05:39.745Z,64.72
2018-03-31T02:08:05.866Z,64.81
2018-03-31T02:10:31.928Z,64.37
2018-03-31T02:12:58.039Z,64.77
2018-03-31T02:15:24.243Z,64.51
2018-03-31T02:17:50.343Z,64.63
2018-03-31T02:20:16.471Z,64.51
2018-03-31T02:22:42.553Z,64.67
2018-03-31T02:25:08.776Z,64.58
2018-03-31T02:27:34.911Z,64.64
2018-03-31T02:30:01.069Z,65.53
2018-03-31T02:32:27.170Z,64.61
2018-03-31T02:35:08.705Z,64.12
2018-03-31T02:37:34.824Z,64.92
2018-03-31T02:40:00.901Z,64.20
2018-03-31T02:42:27.011Z,63.61
2018-03-31T02:44:54.253Z,63.95
2018-03-31T02:47:20.341Z,64.06
2018-03-31T02:49:46.462Z,63.68
2018-03-31T02:52:12.547Z,63.40
2018-03-31T02:54:42.510Z,63.61
2018-03-31T02:57:08.683Z,63.41
2018-03-31T02:59:34.849Z,63.34
2018-03-31T03:02:00.953Z,63.21
2018-03-31T03:04:27.116Z,63.31
2018-03-31T03:06:53.182Z,63.11
2018-03-31T03:09:19.320Z,63.38
2018-03-31T03:11:45.482Z,63.62
2018-03-31T03:14:15.502Z,63.71
2018-03-31T03:16:41.581Z,63.48
2018-03-31T03:19:07.728Z,64.08
2018-03-31T03:21:33.855Z,64.38
2018-03-31T03:24:03.285Z,64.56
2018-03-31T03:26:29.396Z,64.53
2018-03-31T03:28:55.535Z,65.07
2018-03-31T03:31:21.638Z,64.84
2018-03-31T03:33:47.878Z,65.50
2018-03-31T03:36:13.953Z,64.98
2018-03-31T03:38:40.007Z,65.42
2018-03-31T03:41:06.138Z,65.26
2018-03-31T03:43:32.272Z,65.08
2018-03-31T03:45:58.429Z,65.60
2018-03-31T03:48:24.586Z,65.01
2018-03-31T03:50:50.693Z,64.92
2018-03-31T03:53:16.817Z,65.15
2018-03-31T03:55:42.976Z,65.33
2018-03-31T03:58:09.102Z,65.30
2018-03-31T04:00:35.229Z,64.82
2018-03-31T04:03:01.728Z,64.90
2018-03-31T04:05:27.833Z,64.62
2018-03-31T04:07:53.962Z,64.97
2018-03-31T04:10:20.052Z,64.96
2018-03-31T04:12:46.146Z,65.41
2018-03-31T04:15:15.755Z,65.33
2018-03-31T04:17:41.836Z,65.32
2018-03-31T04:20:07.960Z,65.09
2018-03-31T04:22:34.064Z,64.78
2018-03-31T04:25:04.183Z,64.60
2018-03-31T04:27:30.279Z,64.89
2018-03-31T04:29:56.390Z,65.04
2018-03-31T04:32:22.541Z,64.16
2018-03-31T04:34:55.563Z,63.85
2018-03-31T04:37:21.797Z,64.02
2018-03-31T04:39:47.922Z,63.76
2018-03-31T04:42:14.005Z,63.57
2018-03-31T04:44:40.163Z,63.14
2018-03-31T04:47:06.318Z,62.86
2018-03-31T04:49:32.472Z,61.93
2018-03-31T04:51:58.611Z,62.23
2018-03-31T04:54:24.717Z,61.87
2018-03-31T04:56:50.855Z,61.51
2018-03-31T04:59:16.987Z,61.89
2018-03-31T05:01:43.442Z,62.35
2018-03-31T05:04:09.675Z,61.85
2018-03-31T05:06:35.857Z,61.68
2018-03-31T05:09:02.161Z,61.93
2018-03-31T05:11:28.351Z,61.95
2018-03-31T05:13:54.782Z,62.17
2018-03-31T05:16:21.996Z,61.99
2018-03-31T05:18:48.316Z,62.28
2018-03-31T05:21:14.949Z,62.84
2018-03-31T05:23:41.751Z,62.87
2018-03-31T05:26:09.788Z,62.74
2018-03-31T05:28:36.132Z,62.74
2018-03-31T05:31:02.246Z,63.09
2018-03-31T05:33:28.430Z,62.95
2018-03-31T05:35:54.886Z,63.54
2018-03-31T05:38:22.280Z,63.55
2018-03-31T05:40:48.453Z,62.85
2018-03-31T05:43:14.825Z,63.00
2018-03-31T05:45:41.028Z,62.30
2018-03-31T05:48:08.196Z,62.46
2018-03-31T05:50:36.160Z,62.48
2018-03-31T05:53:03.344Z,61.99
2018-03-31T05:55:30.111Z,61.66
2018-03-31T05:57:56.524Z,61.70
2018-03-31T06:00:22.764Z,61.78
2018-03-31T06:02:50.058Z,60.72
2018-03-31T06:05:20.486Z,60.13
2018-03-31T06:07:47.100Z,59.99
2018-03-31T06:10:13.457Z,59.68
2018-03-31T06:12:39.802Z,59.23
2018-03-31T06:15:12.466Z,59.94
2018-03-31T06:17:38.718Z,59.97
2018-03-31T06:20:05.237Z,60.11
2018-03-31T06:22:31.485Z,60.03
2018-03-31T06:24:57.679Z,59.01
2018-03-31T06:27:23.873Z,58.86
2018-03-31T06:29:50.086Z,58.63
2018-03-31T06:32:16.290Z,57.82
2018-03-31T06:34:42.548Z,57.45
2018-03-31T06:37:08.761Z,57.56
2018-03-31T06:39:35.199Z,57.02
2018-03-31T06:42:01.387Z,56.59
2018-03-31T06:44:30.835Z,57.56
2018-03-31T06:46:57.032Z,55.81
2018-03-31T06:49:23.164Z,54.18
2018-03-31T06:51:49.279Z,51.86
2018-03-31T06:54:15.503Z,51.45
2018-03-31T06:56:41.671Z,51.48
2018-03-31T06:59:07.817Z,50.61
2018-03-31T07:01:34.048Z,49.91
2018-03-31T07:04:00.205Z,48.61
2018-03-31T07:06:26.336Z,47.86
2018-03-31T07:08:53.385Z,49.15
2018-03-31T07:11:19.541Z,48.92
2018-03-31T07:13:45.645Z,47.47
2018-03-31T07:16:13.825Z,47.92
2018-03-31T07:18:39.931Z,47.95
2018-03-31T07:21:06.336Z,49.50
2018-03-31T07:23:32.632Z,49.69
2018-03-31T07:25:58.805Z,50.23
2018-03-31T07:28:24.940Z,50.23
2018-03-31T07:30:51.158Z,49.15
2018-03-31T07:33:17.271Z,48.99
2018-03-31T07:35:44.503Z,48.12
2018-03-31T07:38:10.708Z,47.94
2018-03-31T07:40:36.808Z,48.55
2018-03-31T07:43:03.124Z,49.97
2018-03-31T07:45:29.473Z,49.46
2018-03-31T07:47:55.655Z,49.45
2018-03-31T07:50:21.779Z,48.82
2018-03-31T07:52:48.069Z,47.95
2018-03-31T07:55:14.221Z,47.85
2018-03-31T07:57:40.354Z,47.02
2018-03-31T08:00:06.545Z,45.07
2018-03-31T08:02:32.667Z,44.28
2018-03-31T08:04:58.989Z,46.49
2018-03-31T08:07:25.139Z,44.83
2018-03-31T08:09:51.445Z,44.37
2018-03-31T08:12:17.546Z,43.58
2018-03-31T08:14:44.999Z,43.59
2018-03-31T08:17:11.758Z,43.77
2018-03-31T08:19:37.923Z,43.85
2018-03-31T08:22:04.115Z,43.65
2018-03-31T08:24:31.334Z,44.48
2018-03-31T08:26:57.475Z,44.38
2018-03-31T08:29:23.772Z,44.44
2018-03-31T08:31:49.955Z,44.08
2018-03-31T08:34:16.287Z,45.16
2018-03-31T08:36:42.473Z,44.64
2018-03-31T08:39:08.636Z,44.74
2018-03-31T08:41:35.118Z,43.94
2018-03-31T08:44:01.417Z,44.14
2018-03-31T08:46:27.681Z,45.57
2018-03-31T08:48:53.846Z,43.91
2018-03-31T08:51:20.037Z,44.55
2018-03-31T08:53:46.131Z,43.28
2018-03-31T08:56:12.337Z,44.24
2018-03-31T08:58:38.744Z,42.80
2018-03-31T09:01:04.963Z,42.78
2018-03-31T09:03:31.056Z,42.01
2018-03-31T09:05:57.331Z,43.01
2018-03-31T09:08:23.486Z,40.43
2018-03-31T09:10:49.637Z,37.72
2018-03-31T09:13:15.837Z,38.73
2018-03-31T09:15:43.091Z,37.03
2018-03-31T09:18:09.209Z,35.58
2018-03-31T09:20:35.454Z,35.34
2018-03-31T09:23:01.601Z,36.26
2018-03-31T09:25:28.150Z,35.13
2018-03-31T09:27:54.634Z,36.30
2018-03-31T09:30:20.773Z,34.56
2018-03-31T09:32:46.939Z,34.05
2018-03-31T09:35:14.701Z,34.08
2018-03-31T09:37:42.619Z,38.26
2018-03-31T09:40:09.721Z,37.84
2018-03-31T09:42:36.128Z,37.31
2018-03-31T09:45:02.315Z,38.49
2018-03-31T09:47:28.521Z,38.89
2018-03-31T09:49:54.855Z,39.29
2018-03-31T09:52:21.017Z,38.24
2018-03-31T09:54:48.937Z,40.42
2018-03-31T09:57:15.115Z,37.67
2018-03-31T09:59:41.241Z,38.21
2018-03-31T10:02:07.395Z,38.84
2018-03-31T10:04:38.337Z,39.33
2018-03-31T10:07:05.563Z,37.23
2018-03-31T10:09:31.972Z,36.96
2018-03-31T10:11:58.242Z,35.96
2018-03-31T10:14:24.496Z,36.07
2018-03-31T10:16:50.758Z,36.71
2018-03-31T10:19:17.065Z,34.37
2018-03-31T10:21:43.478Z,35.23
2018-03-31T10:24:09.867Z,32.88
2018-03-31T10:26:36.238Z,33.69
2018-03-31T10:29:02.668Z,34.11
2018-03-31T10:31:28.898Z,36.61
2018-03-31T10:33:55.151Z,35.25
2018-03-31T10:36:21.538Z,34.38
2018-03-31T10:38:48.437Z,35.63
2018-03-31T10:41:14.763Z,33.28
2018-03-31T10:43:41.055Z,34.74
2018-03-31T10:46:07.287Z,33.35
2018-03-31T10:48:34.564Z,32.00
2018-03-31T10:51:00.899Z,34.40
2018-03-31T10:53:27.152Z,31.97
2018-03-31T10:55:53.444Z,32.21
2018-03-31T10:58:19.744Z,33.42
2018-03-31T11:00:45.940Z,33.66
2018-03-31T11:03:12.322Z,34.11
2018-03-31T11:05:38.608Z,32.67
2018-03-31T11:08:04.804Z,31.42
2018-03-31T11:10:31.136Z,32.28
2018-03-31T11:12:57.452Z,32.09
2018-03-31T11:15:23.702Z,34.51
2018-03-31T11:17:49.934Z,33.49
2018-03-31T11:20:16.086Z,33.77
2018-03-31T11:22:42.688Z,31.38
2018-03-31T11:25:08.998Z,33.87
2018-03-31T11:27:35.126Z,32.33
2018-03-31T11:30:01.380Z,32.98
2018-03-31T11:32:28.458Z,34.46
2018-03-31T11:34:58.677Z,34.56
2018-03-31T11:37:25.212Z,34.19
2018-03-31T11:39:51.379Z,33.21
2018-03-31T11:42:17.478Z,32.48
2018-03-31T11:44:44.415Z,34.06
2018-03-31T11:47:10.932Z,33.31
2018-03-31T11:49:37.472Z,34.08
2018-03-31T11:52:03.783Z,32.78
2018-03-31T11:54:30.817Z,32.39
2018-03-31T11:56:57.052Z,32.10
2018-03-31T11:59:23.536Z,33.71
2018-03-31T12:01:49.929Z,32.28
2018-03-31T12:12:19.217Z,32.93
2018-03-31T12:14:45.828Z,33.82
2018-03-31T12:17:12.631Z,34.76
2018-03-31T12:19:39.400Z,34.72
2018-03-31T12:22:06.612Z,33.53
2018-03-31T12:24:33.718Z,34.82
2018-03-31T12:27:00.417Z,33.78
2018-03-31T12:29:28.230Z,32.33
2018-03-31T12:31:55.085Z,34.16
2018-03-31T12:34:21.541Z,33.16
2018-03-31T12:36:48.027Z,33.86
2018-03-31T12:39:14.775Z,33.67
2018-03-31T12:41:41.292Z,32.53
2018-03-31T12:44:08.386Z,32.78
2018-03-31T12:46:35.781Z,33.45
2018-03-31T12:49:02.664Z,32.56
2018-03-31T12:51:30.746Z,33.52
2018-03-31T12:53:57.294Z,33.67
2018-03-31T12:56:23.955Z,32.87
2018-03-31T12:58:50.315Z,33.94
2018-03-31T13:01:16.800Z,34.92
2018-03-31T13:03:43.499Z,33.61
2018-03-31T13:06:09.914Z,35.86
2018-03-31T13:08:36.258Z,35.42
2018-03-31T13:11:02.769Z,37.05
2018-03-31T13:13:29.315Z,33.91
2018-03-31T13:15:56.337Z,33.50
2018-03-31T13:18:22.972Z,34.67
2018-03-31T13:20:49.429Z,33.48
2018-03-31T13:23:16.047Z,34.62
2018-03-31T13:25:42.455Z,35.55
2018-03-31T13:28:09.204Z,36.09
2018-03-31T13:30:35.938Z,34.94
2018-03-31T13:33:02.207Z,35.19
2018-03-31T13:35:29.581Z,34.96
2018-03-31T13:37:55.969Z,35.90
2018-03-31T13:40:22.654Z,34.78
2018-03-31T13:42:49.064Z,34.57
2018-03-31T13:45:15.484Z,34.98
2018-03-31T13:47:42.148Z,38.38
2018-03-31T13:50:08.794Z,35.09
2018-03-31T13:52:35.870Z,35.33
2018-03-31T13:55:02.392Z,36.70
2018-03-31T13:57:28.583Z,36.24
2018-03-31T13:59:54.695Z,36.29
2018-03-31T14:02:20.882Z,36.72
2018-03-31T14:04:47.148Z,35.86
2018-03-31T14:07:13.397Z,38.05
2018-03-31T14:09:39.613Z,39.04
2018-03-31T14:12:05.787Z,38.12
2018-03-31T14:14:31.923Z,40.45
2018-03-31T14:16:58.145Z,40.94
2018-03-31T14:19:24.465Z,41.57
2018-03-31T14:21:50.598Z,41.14
2018-03-31T14:24:16.934Z,41.01
2018-03-31T14:26:43.136Z,40.96
2018-03-31T14:29:09.348Z,40.81
2018-03-31T14:31:35.549Z,41.63
2018-03-31T14:34:01.868Z,40.66
2018-03-31T14:36:28.167Z,41.89
2018-03-31T14:38:54.471Z,41.43
2018-03-31T14:41:21.291Z,42.51
2018-03-31T14:43:48.148Z,43.57
2018-03-31T14:46:14.445Z,45.17
2018-03-31T14:48:40.599Z,44.61
2018-03-31T14:51:06.769Z,43.84
2018-03-31T14:53:33.147Z,45.24
2018-03-31T14:55:59.439Z,43.76
2018-03-31T14:58:25.752Z,45.79
2018-03-31T15:00:52.124Z,45.49
2018-03-31T15:03:19.722Z,44.67
2018-03-31T15:05:47.190Z,44.41
2018-03-31T15:08:13.859Z,44.42
2018-03-31T15:10:40.105Z,45.50
2018-03-31T15:13:07.030Z,44.80
2018-03-31T15:15:35.064Z,45.50
2018-03-31T15:18:01.489Z,45.10
2018-03-31T15:20:27.731Z,46.23
2018-03-31T15:22:54.030Z,45.28
2018-03-31T15:25:20.342Z,46.69
2018-03-31T15:27:46.721Z,46.43
2018-03-31T15:30:13.265Z,46.46
2018-03-31T15:32:39.903Z,46.75
2018-03-31T15:35:07.323Z,47.31
2018-03-31T15:37:34.206Z,47.26
2018-03-31T15:40:01.649Z,47.91
2018-03-31T15:42:30.233Z,47.90
2018-03-31T15:44:57.348Z,48.74
2018-03-31T15:47:24.299Z,48.14
2018-03-31T15:49:51.233Z,48.34
2018-03-31T15:52:18.188Z,49.64
2018-03-31T15:54:44.422Z,49.69
2018-03-31T15:57:10.927Z,49.91
2018-03-31T15:59:37.120Z,51.05
2018-03-31T16:02:04.153Z,50.53
2018-03-31T16:04:30.483Z,50.48
2018-03-31T16:06:56.770Z,51.12
2018-03-31T16:09:25.538Z,53.58
2018-03-31T16:11:52.028Z,52.85
2018-03-31T16:14:25.698Z,53.78
2018-03-31T16:16:52.787Z,52.72
2018-03-31T16:19:19.647Z,52.99
2018-03-31T16:21:46.474Z,53.05
2018-03-31T16:24:14.695Z,53.25
2018-03-31T16:26:41.985Z,53.95
2018-03-31T16:29:10.969Z,53.37
2018-03-31T16:31:37.954Z,55.47
2018-03-31T16:34:06.482Z,54.13
2018-03-31T16:36:33.107Z,55.10
2018-03-31T16:38:59.614Z,54.78
2018-03-31T16:41:26.061Z,55.14
2018-03-31T16:43:52.479Z,55.33
2018-03-31T16:46:18.967Z,55.41
2018-03-31T16:48:45.448Z,56.13
2018-03-31T16:51:12.232Z,56.90
2018-03-31T16:53:38.778Z,56.19
2018-03-31T16:56:05.197Z,56.10
2018-03-31T16:58:31.431Z,55.96
2018-03-31T17:00:57.678Z,56.57
2018-03-31T17:03:24.543Z,55.87
2018-03-31T17:05:50.871Z,55.72
2018-03-31T17:08:17.048Z,55.30
2018-03-31T17:10:43.415Z,56.06
2018-03-31T17:13:09.974Z,56.38
2018-03-31T17:15:36.387Z,55.75
2018-03-31T17:18:02.666Z,55.57
2018-03-31T17:20:29.246Z,55.59
2018-03-31T17:22:55.653Z,56.50
2018-03-31T17:25:22.264Z,56.33
2018-03-31T17:27:48.630Z,56.41
2018-03-31T17:30:15.763Z,55.42
2018-03-31T17:32:42.448Z,55.87
2018-03-31T17:35:08.770Z,56.52
2018-03-31T17:37:35.436Z,56.71
2018-03-31T17:40:01.770Z,56.99
2018-03-31T17:42:28.340Z,57.52
2018-03-31T17:44:54.769Z,57.55
2018-03-31T17:47:23.838Z,57.61
2018-03-31T17:49:54.890Z,57.96
2018-03-31T17:52:21.818Z,57.37
2018-03-31T17:54:48.297Z,58.28
2018-03-31T17:57:14.663Z,57.70
2018-03-31T17:59:41.030Z,57.45
2018-03-31T18:02:07.599Z,58.21
2018-03-31T18:04:34.160Z,58.05
2018-03-31T18:07:01.220Z,57.83
2018-03-31T18:09:27.594Z,56.88
2018-03-31T18:11:54.048Z,56.85
2018-03-31T18:14:20.618Z,57.32
2018-03-31T18:16:46.947Z,57.57
2018-03-31T18:19:13.750Z,56.66
2018-03-31T18:21:40.491Z,56.89
2018-03-31T18:24:06.981Z,57.38
2018-03-31T18:26:34.378Z,57.31
2018-03-31T18:29:01.225Z,57.36
2018-03-31T18:31:28.811Z,57.79
2018-03-31T18:33:55.863Z,58.33
2018-03-31T18:36:23.141Z,57.13
2018-03-31T18:38:50.117Z,58.45
2018-03-31T18:41:16.640Z,58.08
2018-03-31T18:43:44.199Z,58.52
2018-03-31T18:46:11.583Z,58.56
2018-03-31T18:48:38.383Z,60.06
2018-03-31T18:51:05.894Z,59.12
2018-03-31T18:53:34.439Z,57.12
2018-03-31T18:56:01.641Z,57.78
2018-03-31T18:58:28.661Z,58.06
2018-03-31T19:00:55.235Z,58.62
2018-03-31T19:03:21.806Z,58.13
2018-03-31T19:05:48.970Z,56.81
2018-03-31T19:08:15.517Z,56.00
2018-03-31T19:10:42.929Z,57.42
2018-03-31T19:13:09.578Z,57.29
2018-03-31T19:15:36.015Z,56.26
2018-03-31T19:18:02.559Z,55.91
2018-03-31T19:20:28.941Z,55.34
2018-03-31T19:22:56.169Z,54.48
2018-03-31T19:25:29.228Z,55.02
2018-03-31T19:27:56.229Z,55.29
2018-03-31T19:30:23.065Z,55.15
2018-03-31T19:32:49.762Z,56.01
2018-03-31T19:35:16.802Z,55.67
2018-03-31T19:37:43.806Z,54.92
2018-03-31T19:40:10.214Z,54.48
2018-03-31T19:42:36.605Z,54.09
2018-03-31T19:45:02.908Z,55.00
2018-03-31T19:47:29.664Z,55.88
2018-03-31T19:49:57.393Z,57.27
2018-03-31T19:52:24.427Z,55.51
2018-03-31T19:54:51.448Z,56.84
2018-03-31T19:57:20.172Z,56.35
2018-03-31T19:59:48.639Z,56.10
2018-03-31T20:02:15.997Z,56.75
2018-03-31T20:04:42.389Z,56.49
2018-03-31T20:07:09.010Z,56.93
2018-03-31T20:09:36.172Z,57.37
2018-03-31T20:12:03.361Z,57.64
2018-03-31T20:14:31.331Z,58.02
2018-03-31T20:16:58.431Z,57.79
2018-03-31T20:19:24.991Z,57.48
2018-03-31T20:21:52.305Z,57.97
2018-03-31T20:24:18.766Z,57.84
2018-03-31T20:26:45.671Z,57.74
2018-03-31T20:29:12.325Z,56.67
2018-03-31T20:31:39.252Z,55.16
2018-03-31T20:34:05.776Z,55.25
2018-03-31T20:36:32.467Z,55.56
2018-03-31T20:38:58.984Z,56.68
2018-03-31T20:41:25.526Z,56.70
2018-03-31T20:43:52.232Z,56.61
2018-03-31T20:46:19.624Z,56.05
2018-03-31T20:48:46.205Z,54.55
2018-03-31T20:51:12.912Z,55.10
2018-03-31T20:53:39.534Z,54.72
2018-03-31T20:56:07.392Z,54.07
2018-03-31T20:58:33.896Z,54.70
2018-03-31T21:01:00.526Z,54.29
2018-03-31T21:03:26.990Z,54.01
2018-03-31T21:05:53.760Z,54.22
2018-03-31T21:08:20.060Z,52.87
2018-03-31T21:10:46.415Z,53.10
2018-03-31T21:13:12.984Z,52.48
2018-03-31T21:15:39.468Z,53.40
2018-03-31T21:18:05.914Z,55.02
2018-03-31T21:20:32.226Z,55.57
2018-03-31T21:22:58.696Z,55.09
2018-03-31T21:25:25.358Z,56.39
2018-03-31T21:27:52.163Z,56.45
2018-03-31T21:30:18.393Z,57.39
2018-03-31T21:32:44.834Z,55.57
2018-03-31T21:35:11.186Z,56.76
2018-03-31T21:37:37.400Z,56.48
2018-03-31T21:40:03.774Z,55.69
2018-03-31T21:42:30.572Z,56.49
2018-03-31T21:44:56.942Z,56.56
2018-03-31T21:47:23.295Z,56.75
2018-03-31T21:49:49.585Z,56.27
2018-03-31T21:52:15.773Z,56.48
2018-03-31T21:54:42.119Z,54.43
2018-03-31T21:57:08.503Z,55.75
2018-03-31T21:59:35.872Z,54.98
2018-03-31T22:02:02.095Z,55.91
2018-03-31T22:04:28.339Z,56.77
2018-03-31T22:06:54.765Z,54.65
2018-03-31T22:09:20.949Z,54.57
2018-03-31T22:11:47.193Z,55.03
2018-03-31T22:14:19.458Z,55.24
2018-03-31T22:16:45.757Z,53.53
2018-03-31T22:19:11.827Z,53.25
2018-03-31T22:21:38.008Z,53.44
2018-03-31T22:24:04.203Z,53.90
2018-03-31T22:26:30.403Z,53.29
2018-03-31T22:28:56.600Z,54.51
2018-03-31T22:31:22.796Z,53.98
2018-03-31T22:33:48.890Z,54.66
2018-03-31T22:36:15.125Z,54.17
2018-03-31T22:38:41.369Z,54.10
2018-03-31T22:41:07.547Z,54.55
2018-03-31T22:43:33.639Z,54.66
2018-03-31T22:45:59.942Z,55.45
2018-03-31T22:48:26.080Z,54.33
2018-03-31T22:50:52.267Z,55.52
2018-03-31T22:53:18.441Z,55.25
2018-03-31T22:55:44.663Z,56.32
2018-03-31T22:58:10.794Z,55.34
2018-03-31T23:00:36.947Z,55.67
2018-03-31T23:03:03.095Z,55.25
2018-03-31T23:05:29.482Z,56.13
2018-03-31T23:07:55.758Z,57.09
2018-03-31T23:10:21.834Z,57.01
2018-03-31T23:12:47.987Z,58.37
2018-03-31T23:15:14.199Z,57.44
2018-03-31T23:17:40.400Z,57.52
2018-03-31T23:20:07.026Z,58.10
2018-03-31T23:22:33.294Z,57.00
2018-03-31T23:24:59.431Z,58.30
2018-03-31T23:27:25.558Z,58.72
2018-03-31T23:29:51.629Z,59.23
2018-03-31T23:32:17.808Z,60.31
2018-03-31T23:34:43.918Z,60.56
2018-03-31T23:37:10.436Z,60.41
2018-03-31T23:39:36.716Z,60.99
2018-03-31T23:42:03.048Z,60.58
2018-03-31T23:44:29.269Z,61.87
2018-03-31T23:46:55.554Z,63.86
2018-03-31T23:49:21.784Z,64.46
2018-03-31T23:51:47.889Z,66.16
2018-03-31T23:54:14.061Z,66.17
2018-03-31T23:56:40.186Z,65.62
2018-03-31T23:59:06.309Z,65.00
